Terminal Aerodrome Forecast
Issued by NWS

Home | Current Version | Previous Version | Text Only | Print | Product List | Glossary On
Versions: 1 2 3 4 5 6 7 8 9 10 11 12 13 14 15 16 17 18 19 20 21 22 23 24 25 26 27 28 29 30 31 32 33
000
FTUS41 KOKX 151726
TAFTEB
TAF
KTEB 151726Z 1518/1624 VRB05KT P6SM VCSH SCT030 BKN050
     FM152000 26006KT 2SM -SN SCT015 OVC025
      TEMPO 1521/1524 1/2SM SN VV009
     FM160200 26009KT P6SM SCT035 BKN070
     FM160400 26011KT P6SM SCT150
     FM161500 27014G22KT P6SM SCT040
     FM161800 27016G25KT P6SM BKN040=

USA.gov is the U.S. government's official web portal to all federal, state and local government web resources and services.